createdAt,value
2018-10-18T00:00:58.158Z,57.23
2018-10-18T00:03:26.898Z,51.53
2018-10-18T00:05:55.498Z,50.63
2018-10-18T00:08:24.155Z,54.47
2018-10-18T00:10:52.824Z,51.37
2018-10-18T00:13:21.499Z,56.53
2018-10-18T00:15:50.165Z,53.50
2018-10-18T00:18:18.839Z,57.80
2018-10-18T00:20:47.503Z,57.40
2018-10-18T00:23:16.179Z,56.77
2018-10-18T00:25:44.853Z,56.93
2018-10-18T00:28:13.533Z,55.47
2018-10-18T00:30:42.185Z,54.63
2018-10-18T00:33:10.863Z,56.77
2018-10-18T00:35:39.521Z,55.17
2018-10-18T00:38:08.255Z,54.60
2018-10-18T00:40:36.833Z,53.03
2018-10-18T00:43:05.511Z,48.87
2018-10-18T00:45:34.179Z,48.37
2018-10-18T00:48:02.843Z,51.80
2018-10-18T00:50:31.495Z,52.43
2018-10-18T00:53:00.155Z,50.70
2018-10-18T00:55:28.801Z,51.33
2018-10-18T00:57:57.455Z,47.67
2018-10-18T01:00:26.112Z,47.17
2018-10-18T01:02:54.778Z,44.97
2018-10-18T01:05:23.421Z,48.83
2018-10-18T01:07:52.123Z,48.30
2018-10-18T01:10:20.747Z,44.53
2018-10-18T01:12:49.407Z,45.20
2018-10-18T01:15:18.083Z,44.93
2018-10-18T01:17:46.751Z,45.27
2018-10-18T01:20:15.468Z,42.17
2018-10-18T01:22:44.051Z,49.17
2018-10-18T01:25:12.749Z,47.27
2018-10-18T01:27:41.407Z,46.43
2018-10-18T01:30:10.149Z,52.20
2018-10-18T01:32:38.717Z,49.00
2018-10-18T01:35:07.568Z,50.30
2018-10-18T01:37:36.227Z,47.47
2018-10-18T01:40:05.077Z,49.00
2018-10-18T01:42:33.733Z,51.30
2018-10-18T01:45:02.411Z,50.00
2018-10-18T01:47:31.059Z,46.70
2018-10-18T01:49:59.753Z,52.03
2018-10-18T01:52:28.381Z,47.47
2018-10-18T01:54:57.059Z,46.57
2018-10-18T01:57:25.712Z,50.83
2018-10-18T01:59:54.415Z,47.90
2018-10-18T02:02:23.043Z,49.67
2018-10-18T02:04:51.698Z,49.63
2018-10-18T02:07:20.363Z,46.97
2018-10-18T02:09:49.029Z,54.13
2018-10-18T02:12:17.747Z,54.40
2018-10-18T02:14:46.390Z,53.80
2018-10-18T02:17:15.069Z,58.90
2018-10-18T02:19:43.726Z,54.87
2018-10-18T02:22:12.382Z,58.30
2018-10-18T02:24:41.041Z,57.43
2018-10-18T02:27:09.709Z,62.07
2018-10-18T02:29:38.392Z,60.30
2018-10-18T02:32:07.313Z,61.67
2018-10-18T02:34:36.017Z,63.63
2018-10-18T02:37:05.323Z,63.40
2018-10-18T02:39:34.006Z,60.20
2018-10-18T02:42:02.828Z,58.40
2018-10-18T02:44:31.428Z,63.03
2018-10-18T02:47:00.099Z,66.10
2018-10-18T02:49:28.757Z,68.43
2018-10-18T02:51:57.606Z,58.63
2018-10-18T02:54:26.271Z,56.57
2018-10-18T02:56:54.941Z,58.33
2018-10-18T02:59:23.596Z,54.97
2018-10-18T03:01:52.240Z,53.57
2018-10-18T03:04:20.911Z,50.47
2018-10-18T03:06:49.566Z,50.00
2018-10-18T03:09:18.229Z,49.50
2018-10-18T03:11:46.897Z,52.97
2018-10-18T03:14:15.557Z,55.43
2018-10-18T03:16:44.217Z,52.33
2018-10-18T03:19:12.881Z,56.63
2018-10-18T03:21:41.545Z,55.20
2018-10-18T03:24:10.310Z,58.70
2018-10-18T03:26:38.898Z,61.63
2018-10-18T03:29:07.566Z,58.80
2018-10-18T03:31:36.238Z,56.90
2018-10-18T03:34:05.397Z,56.57
2018-10-18T03:36:34.164Z,60.53
2018-10-18T03:39:02.880Z,64.03
2018-10-18T03:41:31.603Z,62.67
2018-10-18T03:44:00.226Z,62.67
2018-10-18T03:46:28.915Z,60.83
2018-10-18T03:48:57.592Z,65.90
2018-10-18T03:51:26.270Z,61.17
2018-10-18T03:53:55.002Z,59.57
2018-10-18T03:56:23.611Z,62.73
2018-10-18T03:58:52.301Z,65.77
2018-10-18T04:01:20.961Z,68.80
2018-10-18T04:03:49.657Z,70.13
2018-10-18T04:06:18.369Z,88.67
2018-10-18T04:08:47.166Z,106.47
2018-10-18T04:11:15.956Z,113.57
2018-10-18T04:13:44.622Z,118.67
2018-10-18T04:16:13.408Z,135.27
2018-10-18T04:18:42.111Z,153.60
2018-10-18T04:21:10.787Z,134.10
2018-10-18T04:23:39.465Z,145.40
2018-10-18T04:26:08.208Z,154.57
2018-10-18T04:28:36.859Z,161.00
2018-10-18T04:31:05.538Z,164.27
2018-10-18T04:33:34.220Z,164.97
2018-10-18T04:36:02.931Z,161.27
2018-10-18T04:38:31.581Z,170.00
2018-10-18T04:41:00.253Z,177.00
2018-10-18T04:43:28.947Z,170.20
2018-10-18T04:45:57.613Z,169.30
2018-10-18T04:48:26.355Z,169.87
2018-10-18T04:50:54.977Z,159.77
2018-10-18T04:53:23.666Z,150.20
2018-10-18T04:55:52.349Z,142.80
2018-10-18T04:58:21.050Z,139.57
2018-10-18T05:00:49.735Z,140.73
2018-10-18T05:03:18.441Z,148.10
2018-10-18T05:05:50.618Z,144.70
2018-10-18T05:08:19.911Z,137.23
2018-10-18T05:10:48.818Z,148.27
2018-10-18T05:13:17.602Z,140.20
2018-10-18T05:15:46.221Z,137.43
2018-10-18T05:18:15.057Z,135.47
2018-10-18T05:20:43.729Z,136.60
2018-10-18T05:23:12.413Z,144.07
2018-10-18T05:25:41.187Z,143.33
2018-10-18T05:28:09.836Z,150.67
2018-10-18T05:30:38.489Z,156.47
2018-10-18T05:33:07.166Z,159.23
2018-10-18T05:35:35.857Z,160.60
2018-10-18T05:38:04.719Z,158.13
2018-10-18T05:40:33.400Z,155.13
2018-10-18T05:43:02.116Z,158.43
2018-10-18T05:45:30.822Z,149.27
2018-10-18T05:47:59.514Z,148.73
2018-10-18T05:50:28.210Z,147.23
2018-10-18T05:52:56.894Z,140.07
2018-10-18T05:55:25.536Z,136.37
2018-10-18T05:57:54.197Z,129.23
2018-10-18T06:00:22.998Z,122.10
2018-10-18T06:02:51.553Z,109.43
2018-10-18T06:05:20.239Z,97.63
2018-10-18T06:07:48.924Z,90.40
2018-10-18T06:10:29.120Z,84.57
2018-10-18T06:12:57.711Z,83.90
2018-10-18T06:15:26.382Z,75.17
2018-10-18T06:17:55.068Z,67.13
2018-10-18T06:20:23.759Z,60.73
2018-10-18T06:22:52.447Z,59.43
2018-10-18T06:25:21.111Z,60.97
2018-10-18T06:27:49.776Z,61.17
2018-10-18T06:30:18.456Z,63.20
2018-10-18T06:32:47.110Z,53.77
2018-10-18T06:35:16.398Z,55.50
2018-10-18T06:37:45.058Z,50.17
2018-10-18T06:40:15.087Z,53.80
2018-10-18T06:42:43.754Z,55.43
2018-10-18T06:45:13.898Z,55.20
2018-10-18T06:47:43.375Z,49.77
2018-10-18T06:50:13.540Z,50.00
2018-10-18T06:52:42.207Z,53.20
2018-10-18T06:55:10.978Z,54.80
2018-10-18T06:57:40.473Z,47.63
2018-10-18T07:00:14.076Z,46.93
2018-10-18T07:02:43.170Z,45.90
2018-10-18T07:05:12.993Z,55.80
2018-10-18T07:07:41.983Z,57.87
2018-10-18T07:10:10.666Z,54.20
2018-10-18T07:12:39.861Z,50.30
2018-10-18T07:15:09.226Z,53.87
2018-10-18T07:17:38.984Z,54.80
2018-10-18T07:20:08.386Z,52.90
2018-10-18T07:22:37.670Z,57.23
2018-10-18T07:25:07.797Z,53.73
2018-10-18T07:27:36.652Z,51.30
2018-10-18T07:30:06.606Z,53.63
2018-10-18T07:32:35.188Z,53.03
2018-10-18T07:35:04.085Z,51.30
2018-10-18T07:37:32.649Z,54.47
2018-10-18T07:40:01.466Z,52.67
2018-10-18T07:42:30.153Z,55.90
2018-10-18T07:44:58.835Z,49.30
2018-10-18T07:47:27.497Z,51.37
2018-10-18T07:49:56.219Z,44.87
2018-10-18T07:52:24.862Z,59.30
2018-10-18T07:54:53.537Z,56.23
2018-10-18T07:57:22.214Z,54.70
2018-10-18T07:59:50.921Z,54.13
2018-10-18T08:02:19.561Z,44.13
2018-10-18T08:04:48.237Z,41.33
2018-10-18T08:07:17.010Z,42.80
2018-10-18T08:09:45.602Z,44.60
2018-10-18T08:12:14.385Z,41.97
2018-10-18T08:14:43.064Z,46.33
2018-10-18T08:17:11.768Z,38.80
2018-10-18T08:19:40.398Z,39.67
2018-10-18T08:22:09.062Z,37.27
2018-10-18T08:24:37.728Z,34.97
2018-10-18T08:27:06.416Z,28.63
2018-10-18T08:29:35.097Z,31.17
2018-10-18T08:32:03.812Z,35.20
2018-10-18T08:34:32.477Z,39.80
2018-10-18T08:37:01.207Z,38.07
2018-10-18T08:39:29.842Z,44.53
2018-10-18T08:41:58.519Z,32.37
2018-10-18T08:44:27.263Z,34.73
2018-10-18T08:46:55.890Z,39.23
2018-10-18T08:49:24.633Z,37.30
2018-10-18T08:51:53.314Z,34.70
2018-10-18T08:54:21.982Z,32.97
2018-10-18T08:56:50.650Z,35.20
2018-10-18T08:59:19.413Z,33.50
2018-10-18T09:01:48.005Z,36.57
2018-10-18T09:04:16.673Z,36.97
2018-10-18T09:06:45.361Z,38.17
2018-10-18T09:09:14.149Z,43.40
2018-10-18T09:11:42.826Z,44.17
2018-10-18T09:14:11.460Z,46.37
2018-10-18T09:16:40.145Z,49.30
2018-10-18T09:19:08.908Z,50.70
2018-10-18T09:21:37.500Z,43.20
2018-10-18T09:24:06.161Z,36.43
2018-10-18T09:26:34.838Z,37.20
2018-10-18T09:29:03.504Z,36.37
2018-10-18T09:31:32.182Z,33.93
2018-10-18T09:34:00.841Z,37.87
2018-10-18T09:36:29.505Z,37.67
2018-10-18T09:38:59.130Z,41.27
2018-10-18T09:41:27.812Z,40.17
2018-10-18T09:43:58.786Z,42.47
2018-10-18T09:46:27.483Z,44.07
2018-10-18T09:48:56.167Z,45.67
2018-10-18T09:51:24.926Z,43.97
2018-10-18T09:53:53.596Z,40.80
2018-10-18T09:56:22.274Z,46.00
2018-10-18T09:58:50.973Z,44.97
2018-10-18T10:01:25.141Z,48.07
2018-10-18T10:03:53.829Z,51.20
2018-10-18T10:06:22.505Z,47.23
2018-10-18T10:08:51.265Z,57.27
2018-10-18T10:11:19.949Z,71.60
2018-10-18T10:13:48.668Z,66.37
2018-10-18T10:16:17.914Z,65.07
2018-10-18T10:18:46.804Z,70.17
2018-10-18T10:21:15.481Z,63.53
2018-10-18T10:23:44.142Z,62.57
2018-10-18T10:26:12.826Z,66.47
2018-10-18T10:28:41.496Z,65.33
2018-10-18T10:31:10.181Z,63.10
2018-10-18T10:33:39.216Z,65.67
2018-10-18T10:36:08.117Z,64.13
2018-10-18T10:38:37.541Z,69.23
2018-10-18T10:41:06.288Z,61.97
2018-10-18T10:43:34.868Z,63.43
2018-10-18T10:46:03.681Z,61.73
2018-10-18T10:48:32.344Z,61.57
2018-10-18T10:51:01.070Z,66.10
2018-10-18T10:53:29.675Z,66.20
2018-10-18T10:55:58.356Z,66.60
2018-10-18T10:58:27.022Z,68.90
2018-10-18T11:01:07.455Z,61.60
2018-10-18T11:03:36.447Z,64.63
2018-10-18T11:06:05.145Z,64.23
2018-10-18T11:08:34.121Z,64.63
2018-10-18T11:11:02.960Z,61.83
2018-10-18T11:13:31.624Z,54.73
2018-10-18T11:16:01.626Z,50.90
2018-10-18T11:18:31.118Z,45.53
2018-10-18T11:21:00.147Z,43.67
2018-10-18T11:23:28.795Z,37.93
2018-10-18T11:25:57.657Z,33.73
2018-10-18T11:28:26.326Z,25.07
2018-10-18T11:30:55.001Z,21.37
2018-10-18T11:33:23.715Z,18.70
2018-10-18T11:35:52.383Z,18.40
2018-10-18T11:38:21.062Z,16.27
2018-10-18T11:40:49.719Z,16.03
2018-10-18T11:43:18.400Z,12.40
2018-10-18T11:45:47.114Z,12.70
2018-10-18T11:48:16.317Z,14.23
2018-10-18T11:50:45.268Z,15.87
2018-10-18T11:53:13.955Z,16.67
2018-10-18T11:55:43.066Z,16.03
2018-10-18T11:58:12.442Z,17.13
2018-10-18T12:00:41.149Z,19.13
2018-10-18T12:03:09.856Z,15.77
2018-10-18T12:05:38.514Z,20.73
2018-10-18T12:08:07.287Z,19.20
2018-10-18T12:10:35.908Z,20.50
2018-10-18T12:13:04.595Z,20.23
2018-10-18T12:15:33.443Z,19.80
2018-10-18T12:18:02.132Z,18.73
2018-10-18T12:20:30.821Z,18.23
2018-10-18T12:22:59.522Z,16.80
2018-10-18T12:25:28.188Z,17.40
2018-10-18T12:27:56.875Z,15.33
2018-10-18T12:30:25.550Z,16.57
2018-10-18T12:32:54.227Z,18.33
2018-10-18T12:35:22.904Z,18.30
2018-10-18T12:37:51.657Z,15.80
2018-10-18T12:40:20.357Z,15.00
2018-10-18T12:42:49.694Z,19.53
2018-10-18T12:45:18.385Z,16.63
2018-10-18T12:47:47.066Z,18.90
2018-10-18T12:50:15.818Z,17.83
2018-10-18T12:52:44.402Z,21.83
2018-10-18T12:55:13.092Z,17.20
2018-10-18T12:57:41.842Z,20.30
2018-10-18T13:00:11.056Z,17.23
2018-10-18T13:02:39.844Z,17.17
2018-10-18T13:05:09.194Z,14.33
2018-10-18T13:07:37.879Z,12.67
2018-10-18T13:10:08.198Z,12.53
2018-10-18T13:12:36.951Z,15.10
2018-10-18T13:15:06.838Z,11.53
2018-10-18T13:17:35.495Z,13.07
2018-10-18T13:20:04.968Z,10.03
2018-10-18T13:22:33.588Z,12.07
2018-10-18T13:25:02.268Z,10.47
2018-10-18T13:27:30.933Z,8.87
2018-10-18T13:29:59.651Z,10.17
2018-10-18T13:32:28.283Z,10.33
2018-10-18T13:34:56.935Z,10.33
2018-10-18T13:37:25.717Z,11.77
2018-10-18T13:39:54.360Z,15.27
2018-10-18T13:42:23.040Z,13.07
2018-10-18T13:44:51.710Z,13.93
2018-10-18T13:47:20.387Z,12.47
2018-10-18T13:49:49.058Z,13.77
2018-10-18T13:52:17.744Z,14.47
2018-10-18T13:54:46.437Z,14.97
2018-10-18T13:57:15.122Z,13.07
2018-10-18T13:59:55.549Z,17.60
2018-10-18T14:02:24.122Z,13.10
2018-10-18T14:04:52.806Z,16.30
2018-10-18T14:07:21.508Z,13.70
2018-10-18T14:09:50.216Z,16.50
2018-10-18T14:12:19.000Z,14.10
2018-10-18T14:14:47.691Z,13.97
2018-10-18T14:17:16.422Z,11.93
2018-10-18T14:19:45.071Z,11.33
2018-10-18T14:22:13.762Z,11.90
2018-10-18T14:24:42.448Z,12.83
2018-10-18T14:27:11.151Z,12.13
2018-10-18T14:29:39.843Z,11.13
2018-10-18T14:32:08.530Z,14.10
2018-10-18T14:34:37.194Z,10.77
2018-10-18T14:37:05.886Z,15.27
2018-10-18T14:39:34.581Z,12.43
2018-10-18T14:42:03.257Z,12.53
2018-10-18T14:44:32.071Z,11.53
2018-10-18T14:47:00.681Z,12.13
2018-10-18T14:49:29.320Z,12.30
2018-10-18T14:51:58.037Z,15.40
2018-10-18T14:54:26.703Z,12.10
2018-10-18T14:56:55.426Z,12.50
2018-10-18T14:59:24.082Z,12.63
2018-10-18T15:01:52.773Z,12.67
2018-10-18T15:04:21.528Z,13.17
2018-10-18T15:06:50.156Z,11.10
2018-10-18T15:09:18.858Z,14.47
2018-10-18T15:11:47.651Z,12.83
2018-10-18T15:14:16.432Z,12.03
2018-10-18T15:16:45.045Z,12.40
2018-10-18T15:19:13.742Z,10.77
2018-10-18T15:21:42.410Z,10.43
2018-10-18T15:24:11.114Z,11.43
2018-10-18T15:26:40.076Z,11.83
2018-10-18T15:29:08.569Z,12.43
2018-10-18T15:31:37.190Z,13.57
2018-10-18T15:34:06.229Z,11.07
2018-10-18T15:36:34.935Z,17.13
2018-10-18T15:39:04.806Z,11.13
2018-10-18T15:41:33.367Z,11.80
2018-10-18T15:44:02.068Z,11.00
2018-10-18T15:46:30.742Z,13.90
2018-10-18T15:48:59.414Z,12.93
2018-10-18T15:51:28.115Z,11.67
2018-10-18T15:53:57.053Z,11.23
2018-10-18T15:56:25.894Z,12.00
2018-10-18T15:58:54.582Z,10.73
2018-10-18T16:01:23.339Z,10.90
2018-10-18T16:03:52.033Z,10.97
2018-10-18T16:06:20.826Z,15.40
2018-10-18T16:08:49.528Z,11.47
2018-10-18T16:11:18.175Z,13.27
2018-10-18T16:13:46.775Z,12.13
2018-10-18T16:16:22.217Z,13.10
2018-10-18T16:18:50.904Z,13.27
2018-10-18T16:21:19.575Z,11.10
2018-10-18T16:23:48.259Z,12.77
2018-10-18T16:26:16.985Z,15.27
2018-10-18T16:28:45.737Z,12.37
2018-10-18T16:31:14.459Z,10.87
2018-10-18T16:33:43.179Z,11.33
2018-10-18T16:36:11.811Z,10.93
2018-10-18T16:38:40.598Z,10.90
2018-10-18T16:41:09.583Z,15.53
2018-10-18T16:43:38.153Z,12.30
2018-10-18T16:46:06.997Z,14.10
2018-10-18T16:48:35.610Z,16.20
2018-10-18T16:51:04.676Z,13.77
2018-10-18T16:53:33.409Z,13.90
2018-10-18T16:56:02.775Z,18.33
2018-10-18T16:58:31.397Z,13.17
2018-10-18T17:01:00.307Z,15.07
2018-10-18T17:03:29.066Z,14.30
2018-10-18T17:05:57.836Z,14.23
2018-10-18T17:08:26.450Z,15.20
2018-10-18T17:10:55.126Z,16.60
2018-10-18T17:13:23.866Z,16.53
2018-10-18T17:15:52.560Z,13.60
2018-10-18T17:18:21.268Z,19.77
2018-10-18T17:20:50.009Z,13.87
2018-10-18T17:23:18.661Z,13.60
2018-10-18T17:25:47.315Z,14.93
2018-10-18T17:28:16.003Z,13.83
2018-10-18T17:30:44.692Z,12.13
2018-10-18T17:33:13.371Z,13.70
2018-10-18T17:35:42.052Z,15.53
2018-10-18T17:38:10.810Z,15.80
2018-10-18T17:40:39.540Z,16.67
2018-10-18T17:43:08.123Z,16.13
2018-10-18T17:45:36.807Z,16.37
2018-10-18T17:48:05.798Z,16.50
2018-10-18T17:50:34.480Z,16.40
2018-10-18T17:53:03.273Z,15.90
2018-10-18T17:55:31.835Z,15.77
2018-10-18T17:58:00.586Z,15.37
2018-10-18T18:00:29.317Z,16.90
2018-10-18T18:02:57.969Z,18.00
2018-10-18T18:05:26.633Z,14.37
2018-10-18T18:07:55.359Z,16.93
2018-10-18T18:10:24.028Z,15.97
2018-10-18T18:12:52.734Z,14.50
2018-10-18T18:15:21.402Z,16.13
2018-10-18T18:17:50.100Z,17.47
2018-10-18T18:20:18.782Z,17.23
2018-10-18T18:22:47.609Z,20.23
2018-10-18T18:25:16.231Z,17.70
2018-10-18T18:27:44.900Z,18.20
2018-10-18T18:30:14.703Z,18.70
2018-10-18T18:32:43.794Z,16.57
2018-10-18T18:35:12.686Z,20.53
2018-10-18T18:37:41.384Z,18.57
2018-10-18T18:40:10.395Z,17.20
2018-10-18T18:42:39.888Z,17.10
2018-10-18T18:45:14.119Z,16.40
2018-10-18T18:47:42.891Z,15.57
2018-10-18T18:50:11.627Z,16.63
2018-10-18T18:52:40.323Z,17.47
2018-10-18T18:55:10.011Z,17.80
2018-10-18T18:57:38.981Z,16.57
2018-10-18T19:00:08.804Z,19.27
2018-10-18T19:02:37.524Z,19.83
2018-10-18T19:05:07.000Z,19.60
2018-10-18T19:07:35.867Z,17.60
2018-10-18T19:10:05.558Z,19.73
2018-10-18T19:12:34.252Z,18.37
2018-10-18T19:15:03.179Z,21.10
2018-10-18T19:17:31.856Z,22.27
2018-10-18T19:20:00.616Z,21.07
2018-10-18T19:22:29.353Z,20.47
2018-10-18T19:24:58.084Z,22.57
2018-10-18T19:27:26.813Z,20.10
2018-10-18T19:29:55.569Z,19.17
2018-10-18T19:32:24.219Z,20.50
2018-10-18T19:34:52.943Z,18.93
2018-10-18T19:37:21.658Z,21.57
2018-10-18T19:39:50.354Z,23.57
2018-10-18T19:42:19.044Z,22.83
2018-10-18T19:44:47.788Z,18.83
2018-10-18T19:47:16.565Z,18.97
2018-10-18T19:49:45.249Z,18.97
2018-10-18T19:52:14.124Z,22.80
2018-10-18T19:54:42.727Z,20.47
2018-10-18T19:57:11.454Z,22.60
2018-10-18T19:59:40.183Z,21.80
2018-10-18T20:02:08.948Z,20.97
2018-10-18T20:04:37.617Z,23.27
2018-10-18T20:07:06.343Z,25.63
2018-10-18T20:09:35.032Z,22.10
2018-10-18T20:12:03.778Z,19.80
2018-10-18T20:14:32.358Z,20.60
2018-10-18T20:17:01.033Z,19.73
2018-10-18T20:19:29.698Z,22.03
2018-10-18T20:21:58.390Z,20.50
2018-10-18T20:24:27.114Z,18.23
2018-10-18T20:26:55.823Z,20.37
2018-10-18T20:29:24.414Z,20.53
2018-10-18T20:31:53.096Z,20.07
2018-10-18T20:34:21.775Z,20.67
2018-10-18T20:36:50.503Z,17.80
2018-10-18T20:39:19.206Z,22.40
2018-10-18T20:41:47.803Z,22.03
2018-10-18T20:44:16.508Z,20.07
2018-10-18T20:46:45.260Z,22.73
2018-10-18T20:49:13.878Z,19.50
2018-10-18T20:51:42.551Z,21.17
2018-10-18T20:54:11.275Z,23.87
2018-10-18T20:56:39.915Z,22.70
2018-10-18T20:59:08.592Z,23.00
2018-10-18T21:01:37.272Z,21.03
2018-10-18T21:04:05.953Z,20.93
2018-10-18T21:06:34.771Z,19.73
2018-10-18T21:09:03.374Z,21.03
2018-10-18T21:11:32.031Z,17.67
2018-10-18T21:14:00.716Z,20.53
2018-10-18T21:16:29.391Z,17.90
2018-10-18T21:18:58.069Z,18.03
2018-10-18T21:21:26.743Z,20.77
2018-10-18T21:23:55.419Z,17.17
2018-10-18T21:26:24.109Z,17.50
2018-10-18T21:28:53.054Z,18.03
2018-10-18T21:31:21.744Z,20.73
2018-10-18T21:33:50.515Z,18.83
2018-10-18T21:36:19.198Z,18.37
2018-10-18T21:38:47.995Z,20.43
2018-10-18T21:41:16.674Z,18.03
2018-10-18T21:43:45.350Z,16.10
2018-10-18T21:46:14.044Z,20.33
2018-10-18T21:48:42.850Z,15.63
2018-10-18T21:51:11.572Z,17.00
2018-10-18T21:53:40.191Z,14.17
2018-10-18T21:56:08.858Z,15.03
2018-10-18T21:58:37.524Z,11.83
2018-10-18T22:01:06.199Z,15.07
2018-10-18T22:03:34.863Z,12.10
2018-10-18T22:06:03.530Z,12.27
2018-10-18T22:08:32.202Z,10.83
2018-10-18T22:11:00.947Z,13.40
2018-10-18T22:13:29.558Z,13.07
2018-10-18T22:15:58.227Z,12.43
2018-10-18T22:18:26.900Z,14.83
2018-10-18T22:20:55.601Z,13.77
2018-10-18T22:23:24.246Z,13.13
2018-10-18T22:25:52.908Z,15.93
2018-10-18T22:28:21.602Z,16.13
2018-10-18T22:30:50.283Z,12.37
2018-10-18T22:33:18.968Z,12.30
2018-10-18T22:35:47.627Z,13.33
2018-10-18T22:38:16.309Z,14.77
2018-10-18T22:40:44.966Z,14.53
2018-10-18T22:43:13.644Z,14.53
2018-10-18T22:45:46.567Z,12.77
2018-10-18T22:48:15.248Z,17.63
2018-10-18T22:50:43.914Z,13.03
2018-10-18T22:53:12.686Z,9.47
2018-10-18T22:55:41.248Z,13.20
2018-10-18T22:58:09.922Z,11.80
2018-10-18T23:00:38.596Z,13.83
2018-10-18T23:03:07.322Z,11.70
2018-10-18T23:05:35.943Z,10.03
2018-10-18T23:08:04.623Z,9.70
2018-10-18T23:10:33.292Z,9.87
2018-10-18T23:13:01.964Z,9.43
2018-10-18T23:15:30.631Z,8.07
2018-10-18T23:17:59.315Z,13.20
2018-10-18T23:20:27.982Z,9.77
2018-10-18T23:22:56.752Z,10.00
2018-10-18T23:25:25.377Z,11.13
2018-10-18T23:27:54.052Z,7.80
2018-10-18T23:30:22.713Z,11.23
2018-10-18T23:32:51.410Z,10.60
2018-10-18T23:35:20.067Z,7.70
2018-10-18T23:37:48.879Z,13.33
2018-10-18T23:40:17.543Z,9.17
2018-10-18T23:42:46.215Z,11.33
2018-10-18T23:45:14.991Z,12.43
2018-10-18T23:47:43.708Z,9.57
2018-10-18T23:50:12.373Z,8.83
2018-10-18T23:52:41.042Z,7.60
2018-10-18T23:55:09.710Z,7.10
2018-10-18T23:57:38.379Z,7.27
